sensor_id;sensor_type;location;lat;lon;timestamp;pressure;altitude;pressure_sealevel;temperature;humidity
49943;BME280;36011;53.362;58.948;2023-04-28T00:01:55;96570.53;;;10.73;43.93
49943;BME280;36011;53.362;58.948;2023-04-28T00:05:02;96571.38;;;10.74;44.09
49943;BME280;36011;53.362;58.948;2023-04-28T00:08:10;96572.94;;;10.76;44.09
49943;BME280;36011;53.362;58.948;2023-04-28T00:11:17;96560.63;;;10.77;44.15
49943;BME280;36011;53.362;58.948;2023-04-28T00:14:21;96562.94;;;10.82;44.29
49943;BME280;36011;53.362;58.948;2023-04-28T00:17:25;96562.94;;;10.82;44.11
49943;BME280;36011;53.362;58.948;2023-04-28T00:20:30;96555.75;;;10.84;44.18
49943;BME280;36011;53.362;58.948;2023-04-28T00:23:34;96558.91;;;10.89;44.44
49943;BME280;36011;53.362;58.948;2023-04-28T00:26:38;96553.88;;;10.86;44.33
49943;BME280;36011;53.362;58.948;2023-04-28T00:29:44;96563.13;;;10.91;44.36
49943;BME280;36011;53.362;58.948;2023-04-28T00:32:46;96561.53;;;10.89;44.38
49943;BME280;36011;53.362;58.948;2023-04-28T00:35:53;96560.09;;;10.85;44.35
49943;BME280;36011;53.362;58.948;2023-04-28T00:39:01;96549.28;;;10.76;44.73
49943;BME280;36011;53.362;58.948;2023-04-28T00:42:07;96561.69;;;10.74;44.86
49943;BME280;36011;53.362;58.948;2023-04-28T00:45:08;96565.06;;;10.76;45.20
49943;BME280;36011;53.362;58.948;2023-04-28T00:48:15;96555.97;;;10.81;45.11
49943;BME280;36011;53.362;58.948;2023-04-28T00:51:19;96550.84;;;10.79;45.48
49943;BME280;36011;53.362;58.948;2023-04-28T00:54:26;96542.13;;;10.78;45.40
49943;BME280;36011;53.362;58.948;2023-04-28T00:57:35;96553.66;;;10.89;45.71
49943;BME280;36011;53.362;58.948;2023-04-28T01:00:43;96549.00;;;10.92;45.41
49943;BME280;36011;53.362;58.948;2023-04-28T01:03:45;96556.34;;;11.00;45.35
49943;BME280;36011;53.362;58.948;2023-04-28T01:06:51;96556.88;;;11.05;45.37
49943;BME280;36011;53.362;58.948;2023-04-28T01:09:56;96561.91;;;11.08;45.27
49943;BME280;36011;53.362;58.948;2023-04-28T01:13:02;96556.34;;;11.13;45.47
49943;BME280;36011;53.362;58.948;2023-04-28T01:16:03;96560.53;;;11.15;45.62
49943;BME280;36011;53.362;58.948;2023-04-28T01:19:15;96564.91;;;11.28;45.51
49943;BME280;36011;53.362;58.948;2023-04-28T01:22:21;96562.78;;;11.33;45.34
49943;BME280;36011;53.362;58.948;2023-04-28T01:25:25;96570.53;;;11.47;45.04
49943;BME280;36011;53.362;58.948;2023-04-28T01:28:31;96573.22;;;11.58;44.96
49943;BME280;36011;53.362;58.948;2023-04-28T01:31:40;96567.25;;;11.67;45.06
49943;BME280;36011;53.362;58.948;2023-04-28T01:34:44;96569.56;;;11.72;44.95
49943;BME280;36011;53.362;58.948;2023-04-28T01:37:46;96564.91;;;11.76;45.13
49943;BME280;36011;53.362;58.948;2023-04-28T01:40:52;96565.72;;;11.76;45.04
49943;BME280;36011;53.362;58.948;2023-04-28T01:43:59;96572.88;;;11.87;44.97
49943;BME280;36011;53.362;58.948;2023-04-28T01:47:03;96577.44;;;11.96;45.12
49943;BME280;36011;53.362;58.948;2023-04-28T01:50:07;96563.09;;;12.00;44.95
49943;BME280;36011;53.362;58.948;2023-04-28T01:53:15;96579.66;;;12.13;45.09
49943;BME280;36011;53.362;58.948;2023-04-28T01:56:25;96580.41;;;12.27;44.87
49943;BME280;36011;53.362;58.948;2023-04-28T01:59:29;96580.44;;;12.38;44.50
49943;BME280;36011;53.362;58.948;2023-04-28T02:02:36;96576.84;;;12.50;44.34
49943;BME280;36011;53.362;58.948;2023-04-28T02:05:41;96580.94;;;12.66;44.03
49943;BME280;36011;53.362;58.948;2023-04-28T02:08:46;96585.50;;;12.86;43.98
49943;BME280;36011;53.362;58.948;2023-04-28T02:11:50;96586.91;;;13.01;43.59
49943;BME280;36011;53.362;58.948;2023-04-28T02:14:57;96589.28;;;13.16;43.71
49943;BME280;36011;53.362;58.948;2023-04-28T02:18:06;96591.94;;;13.27;43.67
49943;BME280;36011;53.362;58.948;2023-04-28T02:21:12;96591.94;;;13.27;43.78
49943;BME280;36011;53.362;58.948;2023-04-28T02:24:14;96582.84;;;13.31;44.06
49943;BME280;36011;53.362;58.948;2023-04-28T02:27:19;96587.03;;;13.34;44.10
49943;BME280;36011;53.362;58.948;2023-04-28T02:30:21;96595.19;;;13.42;44.19
49943;BME280;36011;53.362;58.948;2023-04-28T02:33:23;96590.75;;;13.42;44.28
49943;BME280;36011;53.362;58.948;2023-04-28T02:36:31;96592.16;;;13.46;44.05
49943;BME280;36011;53.362;58.948;2023-04-28T02:39:42;96592.25;;;13.56;44.31
49943;BME280;36011;53.362;58.948;2023-04-28T02:42:44;96590.94;;;13.62;44.17
49943;BME280;36011;53.362;58.948;2023-04-28T02:45:50;96588.72;;;13.67;44.08
49943;BME280;36011;53.362;58.948;2023-04-28T02:48:57;96587.38;;;13.73;44.00
49943;BME280;36011;53.362;58.948;2023-04-28T02:52:03;96591.31;;;13.78;43.86
49943;BME280;36011;53.362;58.948;2023-04-28T02:55:05;96590.59;;;13.87;43.79
49943;BME280;36011;53.362;58.948;2023-04-28T02:58:06;96596.78;;;13.98;43.51
49943;BME280;36011;53.362;58.948;2023-04-28T03:01:10;96597.72;;;14.08;43.24
49943;BME280;36011;53.362;58.948;2023-04-28T03:04:14;96596.94;;;14.17;43.16
49943;BME280;36011;53.362;58.948;2023-04-28T03:07:16;96604.09;;;14.26;43.05
49943;BME280;36011;53.362;58.948;2023-04-28T03:10:18;96603.06;;;14.38;43.01
49943;BME280;36011;53.362;58.948;2023-04-28T03:13:24;96601.06;;;14.52;42.70
49943;BME280;36011;53.362;58.948;2023-04-28T03:16:37;96601.72;;;14.65;42.57
49943;BME280;36011;53.362;58.948;2023-04-28T03:19:46;96599.00;;;14.76;42.51
49943;BME280;36011;53.362;58.948;2023-04-28T03:23:40;96601.44;;;14.89;42.10
49943;BME280;36011;53.362;58.948;2023-04-28T03:26:45;96595.19;;;15.00;41.80
49943;BME280;36011;53.362;58.948;2023-04-28T03:29:49;96600.38;;;15.11;41.61
49943;BME280;36011;53.362;58.948;2023-04-28T03:32:55;96596.94;;;15.20;41.27
49943;BME280;36011;53.362;58.948;2023-04-28T03:36:09;96603.25;;;15.39;41.00
49943;BME280;36011;53.362;58.948;2023-04-28T03:39:17;96602.44;;;15.48;40.79
49943;BME280;36011;53.362;58.948;2023-04-28T03:42:30;96608.47;;;15.60;40.56
49943;BME280;36011;53.362;58.948;2023-04-28T03:45:36;96607.69;;;15.69;40.43
49943;BME280;36011;53.362;58.948;2023-04-28T03:48:43;96607.84;;;15.87;40.12
49943;BME280;36011;53.362;58.948;2023-04-28T03:51:52;96604.06;;;15.99;39.80
49943;BME280;36011;53.362;58.948;2023-04-28T03:54:58;96609.94;;;16.12;39.46
49943;BME280;36011;53.362;58.948;2023-04-28T03:58:04;96596.22;;;16.27;39.03
49943;BME280;36011;53.362;58.948;2023-04-28T04:01:13;96604.88;;;16.48;38.45
49943;BME280;36011;53.362;58.948;2023-04-28T04:04:17;96599.22;;;16.71;37.83
49943;BME280;36011;53.362;58.948;2023-04-28T04:07:24;96610.22;;;16.95;37.45
49943;BME280;36011;53.362;58.948;2023-04-28T04:10:28;96607.56;;;17.33;36.57
49943;BME280;36011;53.362;58.948;2023-04-28T04:13:31;96602.53;;;17.75;35.74
49943;BME280;36011;53.362;58.948;2023-04-28T04:16:32;96616.84;;;18.28;34.88
49943;BME280;36011;53.362;58.948;2023-04-28T04:19:35;96610.09;;;18.59;34.20
49943;BME280;36011;53.362;58.948;2023-04-28T04:22:42;96615.81;;;18.82;33.53
49943;BME280;36011;53.362;58.948;2023-04-28T04:25:49;96622.97;;;19.16;33.11
49943;BME280;36011;53.362;58.948;2023-04-28T04:28:53;96619.13;;;19.53;31.88
49943;BME280;36011;53.362;58.948;2023-04-28T04:31:57;96616.59;;;19.86;31.12
49943;BME280;36011;53.362;58.948;2023-04-28T04:34:59;96617.97;;;20.23;30.71
49943;BME280;36011;53.362;58.948;2023-04-28T04:38:04;96631.69;;;20.52;30.16
49943;BME280;36011;53.362;58.948;2023-04-28T04:41:08;96632.38;;;20.71;29.78
49943;BME280;36011;53.362;58.948;2023-04-28T04:44:09;96625.66;;;20.83;29.51
49943;BME280;36011;53.362;58.948;2023-04-28T04:47:16;96626.31;;;21.01;29.07
49943;BME280;36011;53.362;58.948;2023-04-28T04:50:20;96632.88;;;21.55;28.19
49943;BME280;36011;53.362;58.948;2023-04-28T04:53:24;96634.34;;;24.14;25.56
49943;BME280;36011;53.362;58.948;2023-04-28T04:56:30;96640.56;;;27.71;21.52
49943;BME280;36011;53.362;58.948;2023-04-28T04:59:36;96644.84;;;31.08;18.62
49943;BME280;36011;53.362;58.948;2023-04-28T05:02:43;96644.25;;;33.97;15.93
49943;BME280;36011;53.362;58.948;2023-04-28T05:05:47;96655.19;;;36.23;13.99
49943;BME280;36011;53.362;58.948;2023-04-28T05:08:56;96651.72;;;37.91;12.47
49943;BME280;36011;53.362;58.948;2023-04-28T05:12:04;96644.03;;;39.32;11.65
49943;BME280;36011;53.362;58.948;2023-04-28T05:15:08;96646.34;;;41.02;10.03
49943;BME280;36011;53.362;58.948;2023-04-28T05:18:12;96642.91;;;42.17;9.68
49943;BME280;36011;53.362;58.948;2023-04-28T05:21:19;96649.78;;;43.28;8.85
49943;BME280;36011;53.362;58.948;2023-04-28T05:24:26;96648.88;;;42.97;8.88
49943;BME280;36011;53.362;58.948;2023-04-28T05:27:30;96650.09;;;42.68;8.69
49943;BME280;36011;53.362;58.948;2023-04-28T05:30:43;96643.50;;;41.86;9.26
49943;BME280;36011;53.362;58.948;2023-04-28T05:33:50;96648.00;;;41.82;9.19
49943;BME280;36011;53.362;58.948;2023-04-28T05:36:55;96655.63;;;42.68;8.59
49943;BME280;36011;53.362;58.948;2023-04-28T05:39:59;96656.06;;;44.45;7.92
49943;BME280;36011;53.362;58.948;2023-04-28T05:43:06;96656.38;;;46.04;6.94
49943;BME280;36011;53.362;58.948;2023-04-28T05:46:13;96659.25;;;46.75;6.67
49943;BME280;36011;53.362;58.948;2023-04-28T05:49:20;96658.78;;;48.31;5.88
49943;BME280;36011;53.362;58.948;2023-04-28T05:52:23;96649.31;;;49.57;5.55
49943;BME280;36011;53.362;58.948;2023-04-28T05:55:30;96648.28;;;50.41;5.29
49943;BME280;36011;53.362;58.948;2023-04-28T05:58:35;96654.88;;;51.42;4.82
49943;BME280;36011;53.362;58.948;2023-04-28T06:01:37;96653.59;;;51.82;4.33
49943;BME280;36011;53.362;58.948;2023-04-28T06:04:41;96649.72;;;51.05;4.45
49943;BME280;36011;53.362;58.948;2023-04-28T06:07:51;96647.63;;;51.41;4.36
49943;BME280;36011;53.362;58.948;2023-04-28T06:10:59;96654.31;;;52.25;3.97
49943;BME280;36011;53.362;58.948;2023-04-28T06:14:04;96642.78;;;53.17;3.75
49943;BME280;36011;53.362;58.948;2023-04-28T06:17:07;96652.53;;;53.64;3.49
49943;BME280;36011;53.362;58.948;2023-04-28T06:20:11;96643.97;;;53.50;3.61
49943;BME280;36011;53.362;58.948;2023-04-28T06:23:13;96642.41;;;52.88;3.95
49943;BME280;36011;53.362;58.948;2023-04-28T06:26:20;96644.47;;;51.23;4.31
49943;BME280;36011;53.362;58.948;2023-04-28T06:29:23;96632.53;;;50.01;5.06
49943;BME280;36011;53.362;58.948;2023-04-28T06:32:30;96638.72;;;49.78;4.98
49943;BME280;36011;53.362;58.948;2023-04-28T06:35:35;96633.84;;;49.59;5.02
49943;BME280;36011;53.362;58.948;2023-04-28T06:38:42;96631.84;;;50.74;4.46
49943;BME280;36011;53.362;58.948;2023-04-28T06:41:47;96629.78;;;52.45;3.96
49943;BME280;36011;53.362;58.948;2023-04-28T06:44:53;96633.84;;;53.08;3.76
49943;BME280;36011;53.362;58.948;2023-04-28T06:47:57;96635.56;;;53.94;3.56
49943;BME280;36011;53.362;58.948;2023-04-28T06:51:05;96630.03;;;54.05;3.54
49943;BME280;36011;53.362;58.948;2023-04-28T06:54:13;96625.97;;;54.61;3.31
49943;BME280;36011;53.362;58.948;2023-04-28T06:57:15;96622.69;;;55.40;2.82
49943;BME280;36011;53.362;58.948;2023-04-28T07:00:22;96624.78;;;56.21;2.76
49943;BME280;36011;53.362;58.948;2023-04-28T07:03:29;96626.75;;;56.60;2.59
49943;BME280;36011;53.362;58.948;2023-04-28T07:06:34;96617.94;;;56.30;2.39
49943;BME280;36011;53.362;58.948;2023-04-28T07:09:39;96607.47;;;55.98;2.47
49943;BME280;36011;53.362;58.948;2023-04-28T07:12:44;96610.66;;;55.78;2.84
49943;BME280;36011;53.362;58.948;2023-04-28T07:15:49;96605.00;;;55.53;2.62
49943;BME280;36011;53.362;58.948;2023-04-28T07:18:54;96594.81;;;55.24;2.86
49943;BME280;36011;53.362;58.948;2023-04-28T07:22:01;96594.50;;;55.40;2.33
49943;BME280;36011;53.362;58.948;2023-04-28T07:25:06;96602.56;;;56.20;2.66
49943;BME280;36011;53.362;58.948;2023-04-28T07:28:13;96596.41;;;56.75;2.12
49943;BME280;36011;53.362;58.948;2023-04-28T07:31:18;96585.94;;;56.72;2.07
49943;BME280;36011;53.362;58.948;2023-04-28T07:34:24;96583.59;;;56.38;2.00
49943;BME280;36011;53.362;58.948;2023-04-28T07:37:30;96579.94;;;56.56;2.35
49943;BME280;36011;53.362;58.948;2023-04-28T07:40:36;96578.41;;;57.28;1.72
49943;BME280;36011;53.362;58.948;2023-04-28T07:43:39;96576.41;;;57.85;1.88
49943;BME280;36011;53.362;58.948;2023-04-28T07:46:45;96586.47;;;58.69;1.47
49943;BME280;36011;53.362;58.948;2023-04-28T07:49:51;96585.63;;;58.72;1.86
49943;BME280;36011;53.362;58.948;2023-04-28T07:52:57;96582.06;;;57.85;1.76
49943;BME280;36011;53.362;58.948;2023-04-28T07:56:01;96559.09;;;57.09;2.08
49943;BME280;36011;53.362;58.948;2023-04-28T07:59:08;96564.78;;;57.68;1.79
49943;BME280;36011;53.362;58.948;2023-04-28T08:02:13;96560.91;;;58.34;1.89
49943;BME280;36011;53.362;58.948;2023-04-28T08:05:19;96560.09;;;58.41;1.79
49943;BME280;36011;53.362;58.948;2023-04-28T08:08:24;96566.31;;;58.59;1.34
49943;BME280;36011;53.362;58.948;2023-04-28T08:11:31;96561.09;;;58.88;1.61
49943;BME280;36011;53.362;58.948;2023-04-28T08:14:39;96569.72;;;59.12;1.26
49943;BME280;36011;53.362;58.948;2023-04-28T08:17:45;96559.44;;;58.91;1.43
49943;BME280;36011;53.362;58.948;2023-04-28T08:20:52;96557.66;;;59.04;1.64
49943;BME280;36011;53.362;58.948;2023-04-28T08:23:55;96558.28;;;58.54;1.35
49943;BME280;36011;53.362;58.948;2023-04-28T08:27:00;96537.13;;;54.82;2.06
49943;BME280;36011;53.362;58.948;2023-04-28T08:30:06;96523.56;;;51.25;3.34
49943;BME280;36011;53.362;58.948;2023-04-28T08:33:12;96519.44;;;50.76;3.50
49943;BME280;36011;53.362;58.948;2023-04-28T08:36:16;96517.28;;;50.30;3.75
49943;BME280;36011;53.362;58.948;2023-04-28T08:39:21;96515.22;;;50.86;3.24
49943;BME280;36011;53.362;58.948;2023-04-28T08:42:32;96517.56;;;51.26;3.34
49943;BME280;36011;53.362;58.948;2023-04-28T08:45:43;96508.69;;;50.04;3.93
49943;BME280;36011;53.362;58.948;2023-04-28T08:48:48;96503.41;;;49.04;4.29
49943;BME280;36011;53.362;58.948;2023-04-28T08:52:00;96499.00;;;50.17;3.77
49943;BME280;36011;53.362;58.948;2023-04-28T08:55:10;96500.47;;;51.81;3.17
49943;BME280;36011;53.362;58.948;2023-04-28T08:58:13;96499.03;;;52.47;2.88
49943;BME280;36011;53.362;58.948;2023-04-28T09:01:19;96516.25;;;52.16;3.21
49943;BME280;36011;53.362;58.948;2023-04-28T09:04:23;96497.41;;;50.55;3.71
49943;BME280;36011;53.362;58.948;2023-04-28T09:07:28;96489.34;;;49.48;3.71
49943;BME280;36011;53.362;58.948;2023-04-28T09:10:33;96485.47;;;49.05;4.07
49943;BME280;36011;53.362;58.948;2023-04-28T09:13:39;96483.56;;;49.09;4.07
49943;BME280;36011;53.362;58.948;2023-04-28T09:16:44;96485.00;;;48.46;4.12
49943;BME280;36011;53.362;58.948;2023-04-28T09:19:48;96481.88;;;47.95;4.05
49943;BME280;36011;53.362;58.948;2023-04-28T09:22:54;96481.78;;;48.44;4.33
49943;BME280;36011;53.362;58.948;2023-04-28T09:26:06;96493.25;;;49.59;3.81
49943;BME280;36011;53.362;58.948;2023-04-28T09:29:13;96491.50;;;50.60;3.36
49943;BME280;36011;53.362;58.948;2023-04-28T09:32:18;96496.28;;;50.79;3.18
49943;BME280;36011;53.362;58.948;2023-04-28T09:35:39;96500.72;;;50.61;3.60
49943;BME280;36011;53.362;58.948;2023-04-28T09:38:44;96489.25;;;49.60;3.76
49943;BME280;36011;53.362;58.948;2023-04-28T09:41:50;96479.13;;;47.71;4.45
49943;BME280;36011;53.362;58.948;2023-04-28T09:44:56;96474.88;;;46.36;4.64
49943;BME280;36011;53.362;58.948;2023-04-28T09:48:11;96466.13;;;46.80;4.68
49943;BME280;36011;53.362;58.948;2023-04-28T09:51:22;96475.38;;;48.03;3.88
49943;BME280;36011;53.362;58.948;2023-04-28T09:54:26;96471.59;;;48.24;4.17
49943;BME280;36011;53.362;58.948;2023-04-28T09:57:34;96474.47;;;47.38;4.21
49943;BME280;36011;53.362;58.948;2023-04-28T10:00:40;96463.56;;;47.57;4.35
49943;BME280;36011;53.362;58.948;2023-04-28T10:03:45;96456.59;;;47.63;3.94
49943;BME280;36011;53.362;58.948;2023-04-28T10:06:52;96456.50;;;46.77;4.66
49943;BME280;36011;53.362;58.948;2023-04-28T10:09:56;96452.53;;;45.23;5.31
49943;BME280;36011;53.362;58.948;2023-04-28T10:13:01;96452.09;;;45.03;5.22
49943;BME280;36011;53.362;58.948;2023-04-28T10:16:15;96459.16;;;45.69;4.66
49943;BME280;36011;53.362;58.948;2023-04-28T10:19:20;96460.88;;;46.03;4.89
49943;BME280;36011;53.362;58.948;2023-04-28T10:22:57;96450.84;;;46.11;4.99
49943;BME280;36011;53.362;58.948;2023-04-28T10:26:08;96452.09;;;46.43;4.83
49943;BME280;36011;53.362;58.948;2023-04-28T10:29:13;96446.72;;;45.75;4.98
49943;BME280;36011;53.362;58.948;2023-04-28T10:32:18;96433.28;;;44.53;5.43
49943;BME280;36011;53.362;58.948;2023-04-28T10:38:28;96438.91;;;43.04;5.79
49943;BME280;36011;53.362;58.948;2023-04-28T10:41:53;96428.19;;;42.80;5.92
49943;BME280;36011;53.362;58.948;2023-04-28T10:44:55;96435.19;;;42.55;6.28
49943;BME280;36011;53.362;58.948;2023-04-28T10:48:00;96435.50;;;41.44;6.63
49943;BME280;36011;53.362;58.948;2023-04-28T10:54:19;96431.94;;;41.02;6.84
49943;BME280;36011;53.362;58.948;2023-04-28T10:57:20;96427.59;;;40.69;7.06
49943;BME280;36011;53.362;58.948;2023-04-28T11:00:28;96418.22;;;40.51;7.00
49943;BME280;36011;53.362;58.948;2023-04-28T11:07:11;96424.31;;;40.34;7.43
49943;BME280;36011;53.362;58.948;2023-04-28T11:10:17;96415.22;;;39.82;7.50
49943;BME280;36011;53.362;58.948;2023-04-28T11:13:31;96428.84;;;40.63;7.21
49943;BME280;36011;53.362;58.948;2023-04-28T11:19:57;96404.63;;;38.15;8.32
49943;BME280;36011;53.362;58.948;2023-04-28T11:23:07;96411.00;;;35.48;9.51
49943;BME280;36011;53.362;58.948;2023-04-28T11:26:13;96414.28;;;34.50;9.98
49943;BME280;36011;53.362;58.948;2023-04-28T11:29:17;96403.47;;;33.41;10.91
49943;BME280;36011;53.362;58.948;2023-04-28T11:32:32;96403.13;;;33.11;11.11
49943;BME280;36011;53.362;58.948;2023-04-28T11:35:41;96409.72;;;32.76;11.61
49943;BME280;36011;53.362;58.948;2023-04-28T11:38:47;96407.78;;;32.20;11.35
49943;BME280;36011;53.362;58.948;2023-04-28T11:41:55;96406.69;;;31.88;11.63
49943;BME280;36011;53.362;58.948;2023-04-28T11:44:57;96409.59;;;32.32;11.24
49943;BME280;36011;53.362;58.948;2023-04-28T11:48:00;96405.66;;;32.56;11.63
49943;BME280;36011;53.362;58.948;2023-04-28T11:54:55;96415.31;;;34.38;10.32
49943;BME280;36011;53.362;58.948;2023-04-28T11:58:22;96424.91;;;35.46;9.77
49943;BME280;36011;53.362;58.948;2023-04-28T12:01:29;96421.84;;;35.22;9.79
49943;BME280;36011;53.362;58.948;2023-04-28T12:04:43;96408.06;;;34.17;10.46
49943;BME280;36011;53.362;58.948;2023-04-28T12:07:47;96397.72;;;33.38;10.92
49943;BME280;36011;53.362;58.948;2023-04-28T12:11:13;96406.69;;;32.94;10.89
49943;BME280;36011;53.362;58.948;2023-04-28T12:14:22;96409.28;;;33.01;11.12
49943;BME280;36011;53.362;58.948;2023-04-28T12:17:36;96402.75;;;32.85;10.80
49943;BME280;36011;53.362;58.948;2023-04-28T12:20:39;96398.69;;;33.04;10.96
49943;BME280;36011;53.362;58.948;2023-04-28T12:23:46;96391.13;;;33.12;10.91
49943;BME280;36011;53.362;58.948;2023-04-28T12:26:54;96399.03;;;32.91;11.01
49943;BME280;36011;53.362;58.948;2023-04-28T12:29:55;96394.75;;;32.23;11.26
49943;BME280;36011;53.362;58.948;2023-04-28T12:33:02;96396.22;;;31.80;11.83
49943;BME280;36011;53.362;58.948;2023-04-28T12:36:07;96400.31;;;31.65;11.64
49943;BME280;36011;53.362;58.948;2023-04-28T12:39:15;96391.94;;;31.26;12.13
49943;BME280;36011;53.362;58.948;2023-04-28T12:42:19;96389.59;;;30.42;12.46
49943;BME280;36011;53.362;58.948;2023-04-28T12:45:23;96396.84;;;29.83;13.09
49943;BME280;36011;53.362;58.948;2023-04-28T12:48:24;96392.53;;;30.06;13.14
49943;BME280;36011;53.362;58.948;2023-04-28T12:51:29;96399.19;;;29.68;13.35
49943;BME280;36011;53.362;58.948;2023-04-28T12:54:33;96401.97;;;29.31;13.48
49943;BME280;36011;53.362;58.948;2023-04-28T12:57:37;96396.16;;;29.58;13.24
49943;BME280;36011;53.362;58.948;2023-04-28T13:01:00;96397.03;;;29.28;13.50
49943;BME280;36011;53.362;58.948;2023-04-28T13:04:04;96397.28;;;28.71;13.70
49943;BME280;36011;53.362;58.948;2023-04-28T13:07:08;96404.34;;;28.29;14.58
49943;BME280;36011;53.362;58.948;2023-04-28T13:10:12;96405.97;;;27.86;15.13
49943;BME280;36011;53.362;58.948;2023-04-28T13:13:18;96399.06;;;27.59;15.59
49943;BME280;36011;53.362;58.948;2023-04-28T13:16:20;96402.09;;;27.37;15.58
49943;BME280;36011;53.362;58.948;2023-04-28T13:19:26;96366.81;;;26.80;15.92
49943;BME280;36011;53.362;58.948;2023-04-28T13:22:30;96405.53;;;27.19;16.22
49943;BME280;36011;53.362;58.948;2023-04-28T13:25:37;96414.66;;;27.12;16.33
49943;BME280;36011;53.362;58.948;2023-04-28T13:28:43;96410.16;;;26.99;16.55
49943;BME280;36011;53.362;58.948;2023-04-28T13:31:47;96411.50;;;26.76;17.06
49943;BME280;36011;53.362;58.948;2023-04-28T13:34:52;96414.00;;;26.58;16.93
49943;BME280;36011;53.362;58.948;2023-04-28T13:37:59;96410.72;;;26.29;17.28
49943;BME280;36011;53.362;58.948;2023-04-28T13:41:09;96413.44;;;26.03;17.52
49943;BME280;36011;53.362;58.948;2023-04-28T13:44:11;96409.94;;;26.02;17.43
49943;BME280;36011;53.362;58.948;2023-04-28T13:47:14;96420.69;;;26.15;17.59
49943;BME280;36011;53.362;58.948;2023-04-28T13:50:21;96420.91;;;26.27;17.53
49943;BME280;36011;53.362;58.948;2023-04-28T13:53:27;96416.75;;;26.18;17.24
49943;BME280;36011;53.362;58.948;2023-04-28T13:56:31;96419.47;;;26.05;17.43
49943;BME280;36011;53.362;58.948;2023-04-28T13:59:35;96423.56;;;25.81;17.49
49943;BME280;36011;53.362;58.948;2023-04-28T14:02:39;96434.16;;;25.82;17.30
49943;BME280;36011;53.362;58.948;2023-04-28T14:05:43;96427.69;;;25.57;17.63
49943;BME280;36011;53.362;58.948;2023-04-28T14:08:51;96425.16;;;25.42;17.63
49943;BME280;36011;53.362;58.948;2023-04-28T14:11:52;96431.13;;;25.24;17.95
49943;BME280;36011;53.362;58.948;2023-04-28T14:14:59;96434.22;;;25.14;17.74
49943;BME280;36011;53.362;58.948;2023-04-28T14:18:01;96433.91;;;25.02;17.50
49943;BME280;36011;53.362;58.948;2023-04-28T14:21:03;96437.81;;;24.93;17.65
49943;BME280;36011;53.362;58.948;2023-04-28T14:24:08;96426.53;;;24.70;17.72
49943;BME280;36011;53.362;58.948;2023-04-28T14:27:13;96447.16;;;24.62;17.55
49943;BME280;36011;53.362;58.948;2023-04-28T14:30:20;96446.19;;;24.42;17.69
49943;BME280;36011;53.362;58.948;2023-04-28T14:33:25;96439.06;;;24.28;17.48
49943;BME280;36011;53.362;58.948;2023-04-28T14:36:34;96445.72;;;24.04;18.00
49943;BME280;36011;53.362;58.948;2023-04-28T14:39:41;96443.31;;;23.87;17.90
49943;BME280;36011;53.362;58.948;2023-04-28T14:42:45;96451.44;;;23.72;17.90
49943;BME280;36011;53.362;58.948;2023-04-28T14:45:49;96452.31;;;23.58;17.91
49943;BME280;36011;53.362;58.948;2023-04-28T14:48:51;96456.09;;;23.49;17.82
49943;BME280;36011;53.362;58.948;2023-04-28T14:51:53;96463.31;;;23.27;17.98
49943;BME280;36011;53.362;58.948;2023-04-28T14:55:03;96458.34;;;22.94;17.85
49943;BME280;36011;53.362;58.948;2023-04-28T14:58:09;96458.75;;;22.76;17.85
49943;BME280;36011;53.362;58.948;2023-04-28T15:01:11;96453.34;;;22.61;18.08
49943;BME280;36011;53.362;58.948;2023-04-28T15:04:17;96457.88;;;22.31;18.30
49943;BME280;36011;53.362;58.948;2023-04-28T15:07:19;96472.38;;;22.22;18.37
49943;BME280;36011;53.362;58.948;2023-04-28T15:10:30;96469.75;;;22.14;18.32
49943;BME280;36011;53.362;58.948;2023-04-28T15:13:38;96473.94;;;21.93;18.27
49943;BME280;36011;53.362;58.948;2023-04-28T15:16:40;96480.22;;;21.86;18.52
49943;BME280;36011;53.362;58.948;2023-04-28T15:19:46;96485.56;;;21.63;18.68
49943;BME280;36011;53.362;58.948;2023-04-28T15:22:53;96487.78;;;21.51;18.86
49943;BME280;36011;53.362;58.948;2023-04-28T15:25:54;96495.88;;;21.43;18.81
49943;BME280;36011;53.362;58.948;2023-04-28T15:28:57;96491.91;;;21.30;19.18
49943;BME280;36011;53.362;58.948;2023-04-28T15:32:02;96500.81;;;21.23;19.47
49943;BME280;36011;53.362;58.948;2023-04-28T15:35:04;96502.44;;;21.01;19.97
49943;BME280;36011;53.362;58.948;2023-04-28T15:38:11;96505.31;;;20.83;20.21
49943;BME280;36011;53.362;58.948;2023-04-28T15:41:16;96506.22;;;20.67;20.74
49943;BME280;36011;53.362;58.948;2023-04-28T15:44:21;96510.75;;;20.50;21.28
49943;BME280;36011;53.362;58.948;2023-04-28T15:47:22;96511.59;;;20.26;21.52
49943;BME280;36011;53.362;58.948;2023-04-28T15:50:26;96519.81;;;20.16;22.10
49943;BME280;36011;53.362;58.948;2023-04-28T15:53:36;96525.47;;;19.97;22.67
49943;BME280;36011;53.362;58.948;2023-04-28T15:56:45;96529.16;;;19.88;23.07
49943;BME280;36011;53.362;58.948;2023-04-28T15:59:49;96529.50;;;19.85;23.36
49943;BME280;36011;53.362;58.948;2023-04-28T16:02:54;96532.63;;;19.72;23.56
49943;BME280;36011;53.362;58.948;2023-04-28T16:06:01;96540.75;;;19.54;23.90
49943;BME280;36011;53.362;58.948;2023-04-28T16:09:10;96536.69;;;19.42;24.12
49943;BME280;36011;53.362;58.948;2023-04-28T16:12:16;96548.22;;;19.42;24.35
49943;BME280;36011;53.362;58.948;2023-04-28T16:15:19;96551.03;;;19.41;24.93
49943;BME280;36011;53.362;58.948;2023-04-28T16:18:25;96548.34;;;19.33;24.87
49943;BME280;36011;53.362;58.948;2023-04-28T16:21:28;96555.69;;;19.31;25.13
49943;BME280;36011;53.362;58.948;2023-04-28T16:24:35;96561.47;;;19.18;25.15
49943;BME280;36011;53.362;58.948;2023-04-28T16:27:42;96557.28;;;19.15;24.96
49943;BME280;36011;53.362;58.948;2023-04-28T16:30:45;96561.28;;;19.11;25.52
49943;BME280;36011;53.362;58.948;2023-04-28T16:33:51;96564.91;;;19.02;25.52